Dayton, Pennsylvania
Current Conditions -  °F | °C
As of 7:35 AM on Monday 24 Nov 2014 (Local Time) from KIDI Reporting Station
Broken Clouds Broken Clouds  
Wind Chill: 61°   Ceiling: 5500
Heat Index: 61°   Visibility: 10mi
Dew Point: 50°   Wind: 10mph
Humidity: 68%   Direction: 220°SW
Pressure: 29.52"   Gusts: NA
Location:  40.88°N, 79.24°W
Report Text: KIDI 241235Z AUTO 22009KT 10SM SCT042 BKN055 BKN070 16/10 A2952 RMK A01
Loading
Personal Weather Stations






























Interactive Weather Map New forecast layout! Learn more

10-Day Weather Forecast

Advertisements
Track Severe Weather on mobile